Terminal Aerodrome Forecast
Issued by NWS Indianapolis, IN

Home | Current Version | Previous Version | Text Only | Print | Product List | Glossary On
Versions: 1 2 3 4 5 6 7 8 9 10 11 12 13 14 15 16 17 18 19 20 21 22 23 24 25 26 27 28 29
000
FTUS43 KIND 222320
TAFIND
TAF
KIND 222320Z 2300/2406 20007KT P6SM BKN045 OVC120
     FM230400 19006KT 6SM BR SCT040 BKN120
     FM230600 20006KT 5SM BR SCT015 BKN045
     FM231230 22006KT 4SM BR OVC005
     FM231600 22006KT 5SM BR BKN010
     FM231800 21006KT P6SM BKN015
     FM232100 15005KT P6SM OVC035=

USA.gov is the U.S. government's official web portal to all federal, state and local government web resources and services.